Time;durP1;ratioP1;P1;durP2;ratioP2;P2;SDS_P1;SDS_P2;PMS_P1;PMS_P2;Temp;Humidity;BMP_temperature;BMP_pressure;BME280_temperature;BME280_humidity;BME280_pressure;Samples;Min_cycle;Max_cycle;Signal;HPM_P1;HPM_P2
2021/09/13 00:02:05;;;;;;;;;;;15.00;99.90;;;;;;5065196;28;19981;-61
2021/09/13 00:04:31;;;;;;;;;;;15.00;99.90;;;;;;5070552;28;19919;-61
2021/09/13 00:06:56;;;;;;;;;;;15.00;99.90;;;;;;5069166;28;19912;-61
2021/09/13 00:09:22;;;;;;;;;;;15.10;99.90;;;;;;5069377;28;19920;-61
2021/09/13 00:11:48;;;;;;;;;;;15.10;99.90;;;;;;5067732;28;19920;-61
2021/09/13 00:14:14;;;;;;;;;;;15.10;99.90;;;;;;5067224;28;20213;-61
2021/09/13 00:16:39;;;;;;;;;;;15.10;99.90;;;;;;5066545;28;19989;-62
2021/09/13 00:19:05;;;;;;;;;;;15.10;99.90;;;;;;5068954;28;20107;-61
2021/09/13 00:21:31;;;;;;;;;;;15.10;99.90;;;;;;5070943;28;19919;-61
2021/09/13 00:23:57;;;;;;;;;;;15.00;99.90;;;;;;5065160;28;19916;-61
2021/09/13 00:26:22;;;;;;;;;;;15.00;99.90;;;;;;5069732;28;19919;-62
2021/09/13 00:28:48;;;;;;;;;;;15.00;99.90;;;;;;5068778;28;20205;-61
2021/09/13 00:31:14;;;;;;;;;;;14.90;99.90;;;;;;5067303;28;19912;-61
2021/09/13 00:33:40;;;;;;;;;;;14.90;99.90;;;;;;5067481;28;19955;-61
2021/09/13 00:36:06;;;;;;;;;;;14.90;99.90;;;;;;5067392;28;19912;-62
2021/09/13 00:38:32;;;;;;;;;;;14.90;99.90;;;;;;5064570;28;20119;-61
2021/09/13 00:40:58;;;;;;;;;;;14.90;99.90;;;;;;5063573;28;19940;-61
2021/09/13 00:43:24;;;;;;;;;;;15.00;99.90;;;;;;5065372;28;20308;-61
2021/09/13 00:45:50;;;;;;;;;;;15.00;99.90;;;;;;5066190;28;20273;-61
2021/09/13 00:48:15;;;;;;;;;;;15.00;99.90;;;;;;5065359;28;19916;-61
2021/09/13 00:50:41;;;;;;;;;;;14.90;99.90;;;;;;5069091;28;19918;-61
2021/09/13 00:53:08;;;;;;;;;;;14.90;99.90;;;;;;5066190;28;19912;-61
2021/09/13 00:55:33;;;;;;;;;;;14.90;99.90;;;;;;5067695;28;19912;-61
2021/09/13 00:57:59;;;;;;;;;;;14.90;99.90;;;;;;5071543;28;19980;-61
2021/09/13 01:00:25;;;;;;;;;;;14.90;99.90;;;;;;5065818;28;19913;-61
2021/09/13 01:02:51;;;;;;;;;;;14.90;99.90;;;;;;5071683;28;19912;-61
2021/09/13 01:05:17;;;;;;;;;;;14.90;99.90;;;;;;5063183;28;19912;-61
2021/09/13 01:07:42;;;;;;;;;;;14.90;99.90;;;;;;5064126;28;19942;-61
2021/09/13 01:10:09;;;;;;;;;;;14.90;99.90;;;;;;5070221;28;19920;-60
2021/09/13 01:12:35;;;;;;;;;;;14.90;99.90;;;;;;5061370;28;20342;-61
2021/09/13 01:15:01;;;;;;;;;;;14.90;99.90;;;;;;5065919;28;20125;-61
2021/09/13 01:17:26;;;;;;;;;;;14.90;99.90;;;;;;5066954;28;19916;-61
2021/09/13 01:19:52;;;;;;;;;;;14.90;99.90;;;;;;5068749;28;19934;-60
2021/09/13 01:22:19;;;;;;;;;;;14.90;99.90;;;;;;5069889;28;19916;-61
2021/09/13 01:24:45;;;;;;;;;;;14.90;99.90;;;;;;5066940;28;20358;-61
2021/09/13 01:27:11;;;;;;;;;;;15.00;99.90;;;;;;5065367;28;20291;-61
2021/09/13 01:29:37;;;;;;;;;;;15.00;99.90;;;;;;5066762;28;20455;-61
2021/09/13 01:32:04;;;;;;;;;;;15.00;99.90;;;;;;5067366;28;19927;-61
2021/09/13 01:34:30;;;;;;;;;;;15.00;99.90;;;;;;5067281;28;19944;-61
2021/09/13 01:36:56;;;;;;;;;;;15.00;99.90;;;;;;5063406;28;19919;-62
2021/09/13 01:39:21;;;;;;;;;;;15.00;99.90;;;;;;5064952;28;20102;-61
2021/09/13 01:41:47;;;;;;;;;;;15.00;99.90;;;;;;5068220;28;20257;-61
2021/09/13 01:44:14;;;;;;;;;;;14.90;99.90;;;;;;5063772;28;19923;-61
2021/09/13 01:46:41;;;;;;;;;;;14.90;99.90;;;;;;5067597;28;20245;-61
2021/09/13 01:49:07;;;;;;;;;;;15.00;99.90;;;;;;5068609;28;19928;-61
2021/09/13 01:51:33;;;;;;;;;;;14.90;99.90;;;;;;5070564;28;20068;-61
2021/09/13 01:53:59;;;;;;;;;;;14.90;99.90;;;;;;5063077;28;19920;-61
2021/09/13 01:56:25;;;;;;;;;;;14.90;99.90;;;;;;5069532;28;19913;-61
2021/09/13 01:58:51;;;;;;;;;;;15.00;99.90;;;;;;5067188;28;19950;-61
2021/09/13 02:01:18;;;;;;;;;;;15.00;99.90;;;;;;5068857;28;20138;-61
2021/09/13 02:03:44;;;;;;;;;;;15.00;99.90;;;;;;5067658;28;19982;-61
2021/09/13 02:06:09;;;;;;;;;;;14.90;99.90;;;;;;5065948;28;19917;-61
2021/09/13 02:08:35;;;;;;;;;;;15.00;99.90;;;;;;5064407;28;19916;-61
2021/09/13 02:11:01;;;;;;;;;;;14.90;99.90;;;;;;5069071;28;19912;-61
2021/09/13 02:13:27;;;;;;;;;;;15.00;99.90;;;;;;5066029;28;19912;-60
2021/09/13 02:15:53;;;;;;;;;;;14.90;99.90;;;;;;5068302;28;20265;-61
2021/09/13 02:18:18;;;;;;;;;;;14.90;99.90;;;;;;5064858;28;19912;-61
2021/09/13 02:20:44;;;;;;;;;;;14.90;99.90;;;;;;5064064;28;20253;-61
2021/09/13 02:23:10;;;;;;;;;;;14.90;99.90;;;;;;5063679;28;19912;-61
2021/09/13 02:25:36;;;;;;;;;;;14.90;99.90;;;;;;5068238;28;19917;-61
2021/09/13 02:28:02;;;;;;;;;;;14.90;99.90;;;;;;5065462;28;19931;-61
2021/09/13 02:30:27;;;;;;;;;;;15.00;99.90;;;;;;5066864;28;19912;-61
2021/09/13 02:32:53;;;;;;;;;;;15.00;99.90;;;;;;5067415;28;19912;-61
2021/09/13 02:35:19;;;;;;;;;;;15.00;99.90;;;;;;5067617;28;19955;-61
2021/09/13 02:37:44;;;;;;;;;;;15.00;99.90;;;;;;5066674;28;20004;-61
2021/09/13 02:40:10;;;;;;;;;;;15.00;99.90;;;;;;5071726;28;19926;-61
2021/09/13 02:42:36;;;;;;;;;;;15.00;99.90;;;;;;5068954;28;19952;-61
2021/09/13 02:45:03;;;;;;;;;;;15.00;99.90;;;;;;5070912;28;19912;-61
2021/09/13 02:47:28;;;;;;;;;;;15.10;99.90;;;;;;5069995;28;19943;-61
2021/09/13 02:49:54;;;;;;;;;;;15.00;99.90;;;;;;5071987;28;19921;-61
2021/09/13 02:52:20;;;;;;;;;;;15.00;99.90;;;;;;5069633;28;19919;-61
2021/09/13 02:54:46;;;;;;;;;;;15.00;99.90;;;;;;5069054;28;19912;-61
2021/09/13 02:57:11;;;;;;;;;;;15.10;99.90;;;;;;5072737;28;20099;-61
2021/09/13 02:59:37;;;;;;;;;;;15.10;99.90;;;;;;5070820;28;20158;-61
2021/09/13 03:02:03;;;;;;;;;;;15.10;99.90;;;;;;5072346;28;20144;-61
2021/09/13 03:04:28;;;;;;;;;;;15.10;99.90;;;;;;5069996;28;20190;-61
2021/09/13 03:06:54;;;;;;;;;;;15.10;99.90;;;;;;5069560;28;20265;-61
2021/09/13 03:09:20;;;;;;;;;;;15.10;99.90;;;;;;5070100;28;20479;-61
2021/09/13 03:11:45;;;;;;;;;;;15.10;99.90;;;;;;5068150;28;19918;-61
2021/09/13 03:14:11;;;;;;;;;;;15.10;99.90;;;;;;5071130;28;19913;-61
2021/09/13 03:16:37;;;;;;;;;;;15.00;99.90;;;;;;5070531;28;19995;-61
2021/09/13 03:19:03;;;;;;;;;;;15.10;99.90;;;;;;5069891;28;19912;-61
2021/09/13 03:21:28;;;;;;;;;;;15.10;99.90;;;;;;5072652;28;19920;-62
2021/09/13 03:23:54;;;;;;;;;;;15.10;99.90;;;;;;5071491;28;19939;-61
2021/09/13 03:26:20;;;;;;;;;;;15.10;99.90;;;;;;5067677;28;20261;-61
2021/09/13 03:28:46;;;;;;;;;;;15.10;99.90;;;;;;5069710;28;20377;-61
2021/09/13 03:31:12;;;;;;;;;;;15.10;99.90;;;;;;5087744;28;19916;-61
2021/09/13 03:33:37;;;;;;;;;;;15.10;99.90;;;;;;5068039;28;19919;-61
2021/09/13 03:36:04;;;;;;;;;;;15.10;99.90;;;;;;5069115;28;19912;-61
2021/09/13 03:38:30;;;;;;;;;;;15.20;99.90;;;;;;5064610;28;19916;-61
2021/09/13 03:40:56;;;;;;;;;;;15.20;99.90;;;;;;5067451;28;20140;-61
2021/09/13 03:43:21;;;;;;;;;;;15.20;99.90;;;;;;5069890;28;20468;-61
2021/09/13 03:45:47;;;;;;;;;;;15.20;99.90;;;;;;5070581;28;20242;-60
2021/09/13 03:48:13;;;;;;;;;;;15.20;99.90;;;;;;5064756;28;19942;-61
2021/09/13 03:50:39;;;;;;;;;;;15.20;99.90;;;;;;5055910;28;19918;-61
2021/09/13 03:53:05;;;;;;;;;;;15.20;99.90;;;;;;5059498;28;19958;-61
2021/09/13 03:55:32;;;;;;;;;;;15.20;99.90;;;;;;5058144;28;19913;-61
2021/09/13 03:57:58;;;;;;;;;;;15.20;99.90;;;;;;5056874;28;22497;-61
2021/09/13 04:00:23;;;;;;;;;;;15.30;99.90;;;;;;5057314;28;20253;-61
2021/09/13 04:02:50;;;;;;;;;;;15.30;99.90;;;;;;5055202;28;19912;-61
2021/09/13 04:05:34;;;;;;;;;;;15.30;99.90;;;;;;5054587;28;19963;-61
2021/09/13 04:13:06;;;;;;;;;;;15.30;99.90;;;;;;5054869;28;19951;-71
2021/09/13 04:15:31;;;;;;;;;;;15.30;99.90;;;;;;5057225;28;20288;-69
2021/09/13 04:17:57;;;;;;;;;;;15.30;99.90;;;;;;5057610;28;19916;-70
2021/09/13 04:20:23;;;;;;;;;;;15.30;99.90;;;;;;5062103;28;19912;-70
2021/09/13 04:22:49;;;;;;;;;;;15.30;99.90;;;;;;5062421;28;20033;-71
2021/09/13 04:25:14;;;;;;;;;;;15.30;99.90;;;;;;5065728;28;19912;-70
2021/09/13 04:27:40;;;;;;;;;;;15.30;99.90;;;;;;5068853;28;19951;-69
2021/09/13 04:30:06;;;;;;;;;;;15.30;99.90;;;;;;5069825;28;20192;-69
2021/09/13 04:32:32;;;;;;;;;;;15.30;99.90;;;;;;5063159;28;19912;-69
2021/09/13 04:34:58;;;;;;;;;;;15.30;99.90;;;;;;5062865;28;19919;-69
2021/09/13 04:37:24;;;;;;;;;;;15.30;99.90;;;;;;5044155;28;20295;-69
2021/09/13 04:39:49;;;;;;;;;;;15.30;99.90;;;;;;5065013;28;21775;-70
2021/09/13 04:42:15;;;;;;;;;;;15.30;99.90;;;;;;5063815;28;19916;-70
2021/09/13 04:44:41;;;;;;;;;;;15.30;99.90;;;;;;5064802;28;19955;-70
2021/09/13 04:47:07;;;;;;;;;;;15.30;99.90;;;;;;5063067;28;20485;-69
2021/09/13 04:49:32;;;;;;;;;;;15.30;99.90;;;;;;5057654;28;22185;-69
2021/09/13 04:51:58;;;;;;;;;;;15.40;99.90;;;;;;5052706;28;19913;-70
2021/09/13 04:54:24;;;;;;;;;;;15.40;99.90;;;;;;5054689;28;19916;-69
2021/09/13 04:56:49;;;;;;;;;;;15.40;99.90;;;;;;5056222;28;20695;-70
2021/09/13 04:59:16;;;;;;;;;;;15.40;99.90;;;;;;5056849;28;19912;-70
2021/09/13 05:01:42;;;;;;;;;;;15.40;99.90;;;;;;5063050;28;20237;-69
2021/09/13 05:04:09;;;;;;;;;;;15.40;99.90;;;;;;5071919;28;19908;-69
2021/09/13 05:06:38;;;;;;;;;;;15.40;99.90;;;;;;5070963;28;20214;-69
2021/09/13 05:09:04;;;;;;;;;;;15.40;99.90;;;;;;5085924;28;19920;-69
2021/09/13 05:11:31;;;;;;;;;;;15.40;99.90;;;;;;5070443;28;19912;-70
2021/09/13 05:13:56;;;;;;;;;;;15.40;99.90;;;;;;5072500;28;19947;-70
2021/09/13 05:16:22;;;;;;;;;;;15.40;99.90;;;;;;5069859;28;19959;-69
2021/09/13 05:18:48;;;;;;;;;;;15.40;99.90;;;;;;5072706;28;20438;-69
2021/09/13 05:21:14;;;;;;;;;;;15.40;99.90;;;;;;5071518;28;19912;-70
2021/09/13 05:23:39;;;;;;;;;;;15.30;99.90;;;;;;5071650;28;19912;-70
2021/09/13 05:26:05;;;;;;;;;;;15.30;99.90;;;;;;5071088;28;19943;-70
2021/09/13 05:28:31;;;;;;;;;;;15.40;99.90;;;;;;5071181;28;19938;-70
2021/09/13 05:30:57;;;;;;;;;;;15.40;99.90;;;;;;5069115;28;20253;-70
2021/09/13 05:33:22;;;;;;;;;;;15.50;99.90;;;;;;5072539;28;19916;-69
2021/09/13 05:35:48;;;;;;;;;;;15.40;99.90;;;;;;5071709;28;19912;-70
2021/09/13 05:38:14;;;;;;;;;;;15.50;99.90;;;;;;5068566;28;19947;-70
2021/09/13 05:40:40;;;;;;;;;;;15.50;99.90;;;;;;5072138;28;19974;-70
2021/09/13 05:43:07;;;;;;;;;;;15.40;99.90;;;;;;5070012;28;19946;-69
2021/09/13 05:45:34;;;;;;;;;;;15.40;99.90;;;;;;5072616;28;19919;-70
2021/09/13 05:47:59;;;;;;;;;;;15.50;99.90;;;;;;5070720;28;20233;-69
2021/09/13 05:50:25;;;;;;;;;;;15.50;99.90;;;;;;5066204;28;19917;-70
2021/09/13 05:52:51;;;;;;;;;;;15.50;99.90;;;;;;5072171;28;19917;-70
2021/09/13 05:55:17;;;;;;;;;;;15.50;99.90;;;;;;5071349;28;19912;-70
2021/09/13 05:57:42;;;;;;;;;;;15.60;99.90;;;;;;5071347;28;19916;-69
2021/09/13 06:00:08;;;;;;;;;;;15.60;99.90;;;;;;5070621;28;20141;-69
2021/09/13 06:02:34;;;;;;;;;;;15.60;99.90;;;;;;5070962;28;20229;-69
2021/09/13 06:05:00;;;;;;;;;;;15.60;99.90;;;;;;5070203;28;20351;-69
2021/09/13 06:07:26;;;;;;;;;;;15.60;99.90;;;;;;5070713;28;19927;-70
2021/09/13 06:09:51;;;;;;;;;;;15.70;99.90;;;;;;5070234;28;19920;-69
2021/09/13 06:12:17;;;;;;;;;;;15.70;99.90;;;;;;5071871;28;19942;-69
2021/09/13 06:14:44;;;;;;;;;;;15.70;99.90;;;;;;5073785;28;19912;-69
2021/09/13 06:17:11;;;;;;;;;;;15.80;99.90;;;;;;5073639;28;19927;-69
2021/09/13 06:19:36;;;;;;;;;;;15.80;99.90;;;;;;5075604;28;20479;-69
2021/09/13 06:22:03;;;;;;;;;;;15.80;99.90;;;;;;5073482;28;19916;-69
2021/09/13 06:24:29;;;;;;;;;;;15.70;99.90;;;;;;5075725;28;19946;-70
2021/09/13 06:26:55;;;;;;;;;;;15.80;99.90;;;;;;5074726;28;20010;-69
2021/09/13 06:29:21;;;;;;;;;;;15.80;99.90;;;;;;5074423;28;20022;-69
2021/09/13 06:31:47;;;;;;;;;;;15.80;99.90;;;;;;5074858;28;20041;-69
2021/09/13 06:34:16;;;;;;;;;;;15.80;99.90;;;;;;5074012;28;20129;-69
2021/09/13 06:36:43;;;;;;;;;;;15.80;99.90;;;;;;5071905;28;20218;-69
2021/09/13 06:39:11;;;;;;;;;;;15.80;99.90;;;;;;5073731;28;19957;-69
2021/09/13 06:41:36;;;;;;;;;;;15.90;99.90;;;;;;5067140;28;19917;-69
2021/09/13 06:44:03;;;;;;;;;;;15.90;99.90;;;;;;5050680;28;19981;-69
2021/09/13 06:49:06;;;;;;;;;;;16.00;99.90;;;;;;5057827;28;20182;-70
2021/09/13 06:51:32;;;;;;;;;;;16.10;99.90;;;;;;5059668;28;20088;-70
2021/09/13 06:53:58;;;;;;;;;;;16.10;99.90;;;;;;5056803;28;19954;-69
2021/09/13 06:56:23;;;;;;;;;;;16.20;99.90;;;;;;5065423;28;19912;-69
2021/09/13 06:58:49;;;;;;;;;;;16.30;99.90;;;;;;5071470;28;19919;-70
2021/09/13 07:01:15;;;;;;;;;;;16.40;99.90;;;;;;5069279;28;19948;-69
2021/09/13 07:03:41;;;;;;;;;;;16.30;99.90;;;;;;5074108;28;19908;-70
2021/09/13 07:06:07;;;;;;;;;;;16.40;99.90;;;;;;5075035;28;20165;-70
2021/09/13 07:08:33;;;;;;;;;;;16.50;99.90;;;;;;5070927;28;19916;-69
2021/09/13 07:10:59;;;;;;;;;;;16.50;99.90;;;;;;5073298;28;20077;-69
2021/09/13 07:13:25;;;;;;;;;;;16.50;99.90;;;;;;5073523;28;19916;-70
2021/09/13 07:15:51;;;;;;;;;;;16.60;99.90;;;;;;5074071;28;19915;-69
2021/09/13 07:18:16;;;;;;;;;;;16.70;99.90;;;;;;5073874;28;19955;-70
2021/09/13 07:20:42;;;;;;;;;;;16.70;99.90;;;;;;5075014;28;19950;-70
2021/09/13 07:23:08;;;;;;;;;;;16.70;99.90;;;;;;5073384;28;19913;-69
2021/09/13 07:25:34;;;;;;;;;;;16.70;99.90;;;;;;5070107;28;20217;-69
2021/09/13 07:27:59;;;;;;;;;;;16.80;99.90;;;;;;5070737;28;19989;-69
2021/09/13 07:30:26;;;;;;;;;;;16.80;99.90;;;;;;5073866;28;19923;-70
2021/09/13 07:32:52;;;;;;;;;;;16.80;99.90;;;;;;5073533;28;19970;-70
2021/09/13 07:35:18;;;;;;;;;;;16.90;99.90;;;;;;5071459;28;19958;-70
2021/09/13 07:37:44;;;;;;;;;;;16.90;99.90;;;;;;5074347;28;19913;-70
2021/09/13 07:40:10;;;;;;;;;;;17.00;99.90;;;;;;5072267;28;19916;-70
2021/09/13 07:42:36;;;;;;;;;;;17.10;99.90;;;;;;5068154;28;19969;-70
2021/09/13 07:45:03;;;;;;;;;;;17.10;99.90;;;;;;5071379;28;19957;-69
2021/09/13 07:47:30;;;;;;;;;;;17.10;99.90;;;;;;5072485;28;20027;-69
2021/09/13 07:49:56;;;;;;;;;;;17.20;99.90;;;;;;5072940;28;19985;-69
2021/09/13 07:52:22;;;;;;;;;;;17.20;99.90;;;;;;5073074;28;19920;-70
2021/09/13 07:54:48;;;;;;;;;;;17.20;99.90;;;;;;5073546;28;19947;-70
2021/09/13 07:57:13;;;;;;;;;;;17.20;99.90;;;;;;5071910;28;20161;-70
2021/09/13 07:59:39;;;;;;;;;;;17.20;99.90;;;;;;5072108;28;20248;-69
2021/09/13 08:02:05;;;;;;;;;;;17.20;99.90;;;;;;5069997;28;19928;-69
2021/09/13 08:04:31;;;;;;;;;;;17.20;99.90;;;;;;5073898;28;19908;-69
2021/09/13 08:06:56;;;;;;;;;;;17.20;99.90;;;;;;5072304;28;20174;-70
2021/09/13 08:09:22;;;;;;;;;;;17.20;99.90;;;;;;5072460;28;20150;-70
2021/09/13 08:11:48;;;;;;;;;;;17.20;99.90;;;;;;5072703;28;19908;-70
2021/09/13 08:14:13;;;;;;;;;;;17.20;99.90;;;;;;5072754;28;20284;-69
2021/09/13 08:16:39;;;;;;;;;;;17.20;99.90;;;;;;5071981;28;20408;-69
2021/09/13 08:19:05;;;;;;;;;;;17.20;99.90;;;;;;5071733;28;19912;-70
2021/09/13 08:21:31;;;;;;;;;;;17.20;99.90;;;;;;5071034;28;20103;-70
2021/09/13 08:23:57;;;;;;;;;;;17.10;99.90;;;;;;5072173;28;19908;-69
2021/09/13 08:26:22;;;;;;;;;;;17.10;99.90;;;;;;5071860;28;19912;-69
2021/09/13 08:28:48;;;;;;;;;;;17.10;99.90;;;;;;5072666;28;19935;-70
2021/09/13 08:31:14;;;;;;;;;;;17.10;99.90;;;;;;5073495;28;20179;-69
2021/09/13 08:33:40;;;;;;;;;;;17.10;99.90;;;;;;5071336;28;20171;-69
2021/09/13 08:36:05;;;;;;;;;;;17.20;99.90;;;;;;5072742;28;20100;-69
2021/09/13 08:38:32;;;;;;;;;;;17.30;99.90;;;;;;5071562;28;20220;-70
2021/09/13 08:40:58;;;;;;;;;;;17.20;99.90;;;;;;5073030;28;19913;-70
2021/09/13 08:43:23;;;;;;;;;;;17.10;99.90;;;;;;5071784;28;20154;-70
2021/09/13 08:48:34;;;;;;;;;;;17.10;99.90;;;;;;5072588;28;19953;-69
2021/09/13 08:51:33;;;;;;;;;;;17.10;99.90;;;;;;5071578;28;20250;-70
2021/09/13 08:53:54;;;;;;;;;;;17.10;99.90;;;;;;5073493;28;20226;-69
2021/09/13 08:56:24;;;;;;;;;;;17.10;99.90;;;;;;5071761;28;20106;-69
2021/09/13 08:58:49;;;;;;;;;;;17.10;99.90;;;;;;5071690;28;20169;-70
2021/09/13 09:01:16;;;;;;;;;;;17.20;99.90;;;;;;5071222;28;19912;-70
2021/09/13 09:03:45;;;;;;;;;;;17.10;99.90;;;;;;5071973;28;19973;-69
2021/09/13 09:06:37;;;;;;;;;;;17.10;99.90;;;;;;5071879;28;20102;-70
2021/09/13 09:09:05;;;;;;;;;;;17.10;99.90;;;;;;5073479;28;19920;-70
2021/09/13 09:11:53;;;;;;;;;;;17.10;99.90;;;;;;5071803;28;20152;-69
2021/09/13 09:14:42;;;;;;;;;;;17.10;99.90;;;;;;5071125;28;19954;-70
2021/09/13 09:17:09;;;;;;;;;;;17.10;99.90;;;;;;5071517;28;20293;-70
2021/09/13 09:19:35;;;;;;;;;;;17.00;99.90;;;;;;5072650;28;19913;-70
2021/09/13 09:22:21;;;;;;;;;;;17.00;99.90;;;;;;5070894;28;19914;-70
2021/09/13 09:24:48;;;;;;;;;;;17.00;99.90;;;;;;5069318;28;19978;-70
2021/09/13 09:27:14;;;;;;;;;;;17.00;99.90;;;;;;5071735;28;19908;-69
2021/09/13 09:29:40;;;;;;;;;;;17.10;99.90;;;;;;5068209;28;20315;-70
2021/09/13 09:32:06;;;;;;;;;;;17.20;99.90;;;;;;5071974;28;19938;-69
2021/09/13 09:34:33;;;;;;;;;;;17.20;99.90;;;;;;5072191;28;19916;-69
2021/09/13 09:36:59;;;;;;;;;;;17.20;99.90;;;;;;5071358;28;19987;-70
2021/09/13 09:39:48;;;;;;;;;;;17.20;99.90;;;;;;5071251;28;19979;-70
2021/09/13 09:42:25;;;;;;;;;;;17.20;99.90;;;;;;5071158;28;20165;-70
2021/09/13 09:44:51;;;;;;;;;;;17.10;99.90;;;;;;5070701;28;19912;-70
2021/09/13 09:47:19;;;;;;;;;;;17.10;99.90;;;;;;5071824;28;20079;-69
2021/09/13 09:49:47;;;;;;;;;;;17.20;99.90;;;;;;5075931;28;19995;-70
2021/09/13 09:52:26;;;;;;;;;;;17.30;99.90;;;;;;5075384;28;19912;-69
2021/09/13 09:55:04;;;;;;;;;;;17.30;99.90;;;;;;5075370;28;20087;-70
2021/09/13 09:57:30;;;;;;;;;;;17.50;99.90;;;;;;5074829;28;19908;-70
2021/09/13 09:59:56;;;;;;;;;;;17.50;99.90;;;;;;5075078;28;19912;-70
2021/09/13 10:02:23;;;;;;;;;;;17.60;99.90;;;;;;5071236;28;19912;-69
2021/09/13 10:04:52;;;;;;;;;;;17.70;99.90;;;;;;5075142;28;19912;-69
2021/09/13 10:07:18;;;;;;;;;;;17.70;99.90;;;;;;5074942;28;20520;-70
2021/09/13 10:09:44;;;;;;;;;;;17.70;99.90;;;;;;5072200;28;19916;-70
2021/09/13 10:12:10;;;;;;;;;;;17.60;99.90;;;;;;5075404;28;19967;-70
2021/09/13 10:14:37;;;;;;;;;;;17.60;99.90;;;;;;5074774;28;20082;-70
2021/09/13 10:17:05;;;;;;;;;;;17.60;99.90;;;;;;5074676;28;19908;-70
2021/09/13 10:19:31;;;;;;;;;;;17.60;99.90;;;;;;5075014;28;19912;-70
2021/09/13 10:21:57;;;;;;;;;;;17.60;99.90;;;;;;5076146;28;19912;-70
2021/09/13 10:24:25;;;;;;;;;;;17.50;99.90;;;;;;5073317;28;19908;-70
2021/09/13 10:26:55;;;;;;;;;;;17.50;99.90;;;;;;5074605;28;19913;-70
2021/09/13 10:29:22;;;;;;;;;;;17.50;99.90;;;;;;5074616;28;19917;-70
2021/09/13 10:31:47;;;;;;;;;;;17.50;99.90;;;;;;5072843;28;20127;-70
2021/09/13 10:34:21;;;;;;;;;;;17.50;99.90;;;;;;5073653;28;20142;-69
2021/09/13 10:37:00;;;;;;;;;;;17.70;99.90;;;;;;5075132;28;20216;-70
2021/09/13 10:39:44;;;;;;;;;;;17.80;99.90;;;;;;5072558;28;19916;-70
2021/09/13 10:42:10;;;;;;;;;;;18.00;99.90;;;;;;5073436;28;19924;-70
2021/09/13 10:44:36;;;;;;;;;;;18.20;99.90;;;;;;5072717;28;20178;-70
2021/09/13 10:47:03;;;;;;;;;;;18.40;99.90;;;;;;5073453;28;20191;-70
2021/09/13 10:49:28;;;;;;;;;;;18.60;99.90;;;;;;5071671;28;20015;-69
2021/09/13 10:52:20;;;;;;;;;;;18.60;99.90;;;;;;5072953;28;19913;-69
2021/09/13 10:55:04;;;;;;;;;;;18.50;99.90;;;;;;5071699;28;20184;-69
2021/09/13 10:57:49;;;;;;;;;;;18.50;99.90;;;;;;5071653;28;19916;-69
2021/09/13 11:00:14;;;;;;;;;;;18.70;99.90;;;;;;5073575;28;19979;-69
2021/09/13 11:02:40;;;;;;;;;;;18.80;99.90;;;;;;5072986;28;19947;-69
2021/09/13 11:05:18;;;;;;;;;;;18.80;99.90;;;;;;5073172;28;20111;-69
2021/09/13 11:08:13;;;;;;;;;;;19.10;99.90;;;;;;5071973;28;19912;-69
2021/09/13 11:10:43;;;;;;;;;;;19.20;99.90;;;;;;5071969;28;19921;-69
2021/09/13 11:13:08;;;;;;;;;;;19.30;99.90;;;;;;5070810;28;19912;-69
2021/09/13 11:15:34;;;;;;;;;;;19.50;99.90;;;;;;5072101;28;19908;-69
2021/09/13 11:18:00;;;;;;;;;;;19.90;99.90;;;;;;5072662;28;19931;-69
2021/09/13 11:20:28;;;;;;;;;;;20.10;99.90;;;;;;5073533;28;19908;-69
2021/09/13 11:22:55;;;;;;;;;;;20.10;99.90;;;;;;5071416;28;20029;-69
2021/09/13 11:25:20;;;;;;;;;;;19.90;99.90;;;;;;5072227;28;20054;-70
2021/09/13 11:27:58;;;;;;;;;;;20.00;99.90;;;;;;5073807;28;19912;-69
2021/09/13 11:30:39;;;;;;;;;;;19.90;99.90;;;;;;5072337;28;20300;-69
2021/09/13 11:33:05;;;;;;;;;;;20.00;99.90;;;;;;5072643;28;20363;-70
2021/09/13 11:35:31;;;;;;;;;;;20.10;99.90;;;;;;5071185;28;20186;-69
2021/09/13 11:38:00;;;;;;;;;;;20.10;99.90;;;;;;5073107;28;20124;-69
2021/09/13 11:40:25;;;;;;;;;;;20.10;99.90;;;;;;5069979;28;19918;-69
2021/09/13 11:42:51;;;;;;;;;;;19.90;99.90;;;;;;5029618;28;1261367;-69
2021/09/13 11:45:17;;;;;;;;;;;19.70;99.90;;;;;;5074212;28;19931;-69
2021/09/13 11:47:43;;;;;;;;;;;19.60;99.90;;;;;;5073334;28;19915;-69
2021/09/13 11:50:09;;;;;;;;;;;19.50;99.90;;;;;;5073145;28;19927;-69
2021/09/13 11:52:36;;;;;;;;;;;19.50;99.90;;;;;;5070798;28;20202;-69
2021/09/13 11:55:10;;;;;;;;;;;19.50;99.90;;;;;;5073480;28;19927;-69
2021/09/13 11:57:37;;;;;;;;;;;20.30;99.90;;;;;;5071562;28;19908;-69
2021/09/13 12:00:20;;;;;;;;;;;21.30;99.90;;;;;;5072789;28;19912;-69
2021/09/13 12:02:47;;;;;;;;;;;21.90;99.90;;;;;;5070513;28;19913;-69
2021/09/13 12:05:16;;;;;;;;;;;22.00;99.90;;;;;;5071813;28;20138;-69
2021/09/13 12:07:44;;;;;;;;;;;21.80;99.90;;;;;;5071984;28;19912;-70
2021/09/13 12:10:11;;;;;;;;;;;21.40;99.90;;;;;;5071002;28;19917;-69
2021/09/13 12:12:40;;;;;;;;;;;21.20;99.90;;;;;;5070268;28;19916;-69
2021/09/13 12:15:07;;;;;;;;;;;21.20;99.90;;;;;;5072284;28;19994;-69
2021/09/13 12:17:38;;;;;;;;;;;21.00;99.90;;;;;;5073129;28;19974;-70
2021/09/13 12:20:14;;;;;;;;;;;21.30;99.90;;;;;;5073184;28;19970;-69
2021/09/13 12:22:40;;;;;;;;;;;21.30;99.90;;;;;;5072178;28;19950;-70
2021/09/13 12:25:14;;;;;;;;;;;21.90;99.90;;;;;;5072822;28;19928;-70
2021/09/13 12:27:40;;;;;;;;;;;22.20;99.90;;;;;;5073048;28;19908;-70
2021/09/13 12:30:07;;;;;;;;;;;22.30;99.90;;;;;;5071592;28;20215;-70
2021/09/13 12:32:35;;;;;;;;;;;22.40;99.90;;;;;;5072626;28;19919;-70
2021/09/13 12:35:02;;;;;;;;;;;22.40;99.90;;;;;;5069086;28;19948;-69
2021/09/13 12:37:32;;;;;;;;;;;22.30;99.90;;;;;;5070397;28;19916;-69
2021/09/13 12:40:17;;;;;;;;;;;21.90;99.90;;;;;;5068569;28;19923;-70
2021/09/13 12:42:55;;;;;;;;;;;21.70;99.90;;;;;;5070632;28;20127;-69
2021/09/13 12:45:25;;;;;;;;;;;21.40;99.90;;;;;;5070544;28;19916;-70
2021/09/13 12:47:55;;;;;;;;;;;21.10;99.90;;;;;;5071264;28;20182;-69
2021/09/13 12:50:28;;;;;;;;;;;21.00;99.90;;;;;;5070670;28;19927;-69
2021/09/13 12:52:54;;;;;;;;;;;21.00;99.90;;;;;;5070759;28;20197;-69
2021/09/13 12:55:21;;;;;;;;;;;20.80;99.90;;;;;;5069498;28;19912;-69
2021/09/13 12:57:47;;;;;;;;;;;20.60;99.90;;;;;;5070997;28;19935;-69
2021/09/13 13:00:13;;;;;;;;;;;20.40;99.90;;;;;;5071775;28;20119;-70
2021/09/13 13:02:39;;;;;;;;;;;20.30;99.90;;;;;;5073114;28;19915;-69
2021/09/13 13:05:25;;;;;;;;;;;20.20;99.90;;;;;;5070573;28;20098;-70
2021/09/13 13:07:50;;;;;;;;;;;20.10;99.90;;;;;;5070816;28;19912;-69
2021/09/13 13:10:16;;;;;;;;;;;20.10;99.90;;;;;;5071774;28;19998;-69
2021/09/13 13:12:42;;;;;;;;;;;20.10;99.90;;;;;;5070464;28;19912;-69
2021/09/13 13:15:08;;;;;;;;;;;19.90;99.90;;;;;;5071477;28;20187;-70
2021/09/13 13:17:33;;;;;;;;;;;19.60;99.90;;;;;;5071921;28;20084;-69
2021/09/13 13:19:59;;;;;;;;;;;19.60;99.90;;;;;;5071928;28;20293;-70
2021/09/13 13:22:25;;;;;;;;;;;19.30;99.90;;;;;;5066501;28;19912;-69
2021/09/13 13:24:50;;;;;;;;;;;19.30;99.90;;;;;;5060264;28;19912;-69
2021/09/13 13:27:16;;;;;;;;;;;19.40;99.90;;;;;;5059129;28;19962;-69
2021/09/13 13:29:43;;;;;;;;;;;19.70;99.90;;;;;;5061014;28;19921;-69
2021/09/13 13:32:09;;;;;;;;;;;19.60;99.90;;;;;;5061098;28;20254;-69
2021/09/13 13:34:36;;;;;;;;;;;19.40;99.90;;;;;;5062026;28;20157;-69
2021/09/13 13:37:02;;;;;;;;;;;19.30;99.90;;;;;;5063470;28;19913;-69
2021/09/13 13:39:28;;;;;;;;;;;19.10;99.90;;;;;;5060454;28;20187;-69
2021/09/13 13:41:53;;;;;;;;;;;18.90;99.90;;;;;;5053163;28;19969;-69
2021/09/13 13:44:19;;;;;;;;;;;18.70;99.90;;;;;;5053353;28;20234;-68
2021/09/13 13:46:45;;;;;;;;;;;18.70;99.90;;;;;;5052908;28;19935;-69
2021/09/13 13:49:11;;;;;;;;;;;18.70;99.90;;;;;;5052459;28;19987;-70
2021/09/13 13:51:36;;;;;;;;;;;18.80;99.90;;;;;;5054164;28;19916;-69
2021/09/13 13:54:02;;;;;;;;;;;18.80;99.90;;;;;;5054317;28;19916;-69
2021/09/13 13:56:28;;;;;;;;;;;18.70;99.90;;;;;;5053070;28;19916;-69
2021/09/13 13:58:53;;;;;;;;;;;18.60;99.90;;;;;;5053017;28;19916;-71
2021/09/13 14:01:19;;;;;;;;;;;18.40;99.90;;;;;;5053550;28;19943;-72
2021/09/13 14:03:45;;;;;;;;;;;18.40;99.90;;;;;;5053718;28;20329;-71
2021/09/13 14:06:11;;;;;;;;;;;18.30;99.90;;;;;;5052358;28;20218;-71
2021/09/13 14:08:37;;;;;;;;;;;18.40;99.90;;;;;;5053638;28;19928;-71
2021/09/13 14:11:02;;;;;;;;;;;18.40;99.90;;;;;;5056044;28;19974;-69
2021/09/13 14:13:28;;;;;;;;;;;18.40;99.90;;;;;;5054234;28;19913;-72
2021/09/13 14:15:54;;;;;;;;;;;18.30;99.90;;;;;;5052282;28;19913;-71
2021/09/13 14:18:20;;;;;;;;;;;18.20;99.90;;;;;;5054182;28;19912;-71
2021/09/13 14:20:46;;;;;;;;;;;18.10;99.90;;;;;;5056385;28;19920;-69
2021/09/13 14:23:12;;;;;;;;;;;18.20;99.90;;;;;;5056084;28;19912;-72
2021/09/13 14:25:37;;;;;;;;;;;18.10;99.90;;;;;;5054983;28;19920;-70
2021/09/13 14:28:03;;;;;;;;;;;17.90;99.90;;;;;;5054754;28;19913;-73